Flight Track Log - Related Links

Times and Time Zones

All times are in EST time to prevent confusion due to time zone crossing. See the AFL150 flight status page for this flight to view local times or setup timezone preferences in your user account.

Time Position Orientation Groundspeed Altitude Reporting Facility
EST Latitude Longitude Course Direction KTS MPH feet Rate Location/Type
Tue 05:06:00 AM 56.0652 37.0350 307° West  Level Estimated
Tue 05:07:00 AM 56.1330 36.8704 307° West  Level Estimated
Tue 05:08:00 AM 56.2005 36.7053 306° West  Level Estimated
Tue 05:09:00 AM 56.2678 36.5396 306° West  Level Estimated
Tue 05:10:00 AM 56.3349 36.3734 306° West  Level Estimated
Tue 05:11:00 AM 56.4018 36.2065 306° West  Level Estimated
Tue 05:12:00 AM 56.4685 36.0391 306° West  Level Estimated
Tue 05:13:00 AM 56.5349 35.8711 306° West  Level Estimated
Tue 05:14:00 AM 56.6002 35.7047 306° West  Level Estimated
Tue 05:15:00 AM 56.6653 35.5377 305° West  Level Estimated
Tue 05:16:00 AM 56.7302 35.3701 305° West  Level Estimated
Tue 05:17:00 AM 56.7949 35.2020 305° West  Level Estimated
Tue 05:18:00 AM 56.8593 35.0332 305° West  Level Estimated
Tue 05:19:00 AM 56.9235 34.8639 305° West  Level Estimated
Tue 05:20:00 AM 56.9875 34.6941 305° West  Level Estimated
Tue 05:21:00 AM 57.0513 34.5236 305° West  Level Estimated
Tue 05:22:00 AM 57.1148 34.3526 304° West  Level Estimated
Tue 05:23:00 AM 57.1781 34.1809 304° West  Level Estimated
Tue 05:24:00 AM 57.2411 34.0087 304° West  Level Estimated
Tue 05:25:00 AM 57.3039 33.8359 304° West  Level Estimated
Tue 05:26:00 AM 57.3665 33.6625 304° West  Level Estimated
Tue 05:27:00 AM 57.4288 33.4885 304° West  Level Estimated
Tue 05:28:00 AM 57.4909 33.3139 304° West  Level Estimated
Tue 05:29:00 AM 57.5528 33.1387 303° West  Level Estimated
Tue 05:30:00 AM 57.6144 32.9629 303° West  Level Estimated
Tue 05:31:00 AM 57.6757 32.7866 303° West  Level Estimated
Tue 05:32:00 AM 57.7369 32.6096 303° West  Level Estimated
Tue 05:33:00 AM 57.7977 32.4320 303° West  Level Estimated
Tue 05:34:00 AM 57.8583 32.2538 303° West  Level Estimated
Tue 05:35:00 AM 57.9187 32.0751 303° West  Level Estimated
Tue 05:36:00 AM 57.9788 31.8957 302° West  Level Estimated
Tue 05:37:00 AM 58.0387 31.7157 302° West  Level Estimated
Tue 05:38:00 AM 58.0983 31.5352 302° West  Level Estimated
Tue 05:39:00 AM 58.1577 31.3540 302° West  Level Estimated
Tue 05:40:00 AM 58.2168 31.1722 302° West  Level Estimated
Tue 05:41:00 AM 58.2756 30.9898 302° West  Level Estimated
Tue 05:42:00 AM 58.3342 30.8069 301° West  Level Estimated
Tue 05:43:00 AM 58.3925 30.6233 301° West  Level Estimated
Tue 05:44:00 AM 58.4505 30.4391 301° West  Level Estimated
Tue 05:45:00 AM 58.5083 30.2542 301° West  Level Estimated
Tue 05:46:00 AM 58.5658 30.0688 301° West  Level Estimated
Tue 05:47:00 AM 58.6231 29.8828 301° West  Level Estimated
Tue 05:48:00 AM 58.6801 29.6962 300° West  Level Estimated
Tue 05:49:00 AM 58.7368 29.5089 300° West  Level Estimated
Tue 05:50:00 AM 58.7932 29.3211 300° West  Level Estimated
Tue 05:51:00 AM 58.8494 29.1326 300° West  Level Estimated
Tue 05:52:00 AM 58.9053 28.9435 300° West  Level Estimated
Tue 05:53:00 AM 58.9609 28.7539 300° West  Level Estimated
Tue 05:54:00 AM 59.0162 28.5636 300° West  Level Estimated
Tue 05:55:00 AM 59.0713 28.3726 299° West  Level Estimated
Tue 05:56:00 AM 59.1261 28.1811 299° West  Level Estimated
Tue 05:57:00 AM 59.1806 27.9890 299° West  Level Estimated
Tue 05:58:00 AM 59.2348 27.7962 299° West  Level Estimated
Tue 05:59:00 AM 59.2887 27.6029 299° West  Level Estimated
Tue 06:00:00 AM 59.3423 27.4089 299° West  Level Estimated
Tue 06:01:00 AM 59.3957 27.2143 298° West  Level Estimated
Tue 06:02:00 AM 59.4487 27.0191 298° West  Level Estimated
Tue 06:03:00 AM 59.5015 26.8233 298° West  Level Estimated
Tue 06:04:00 AM 59.5539 26.6269 298° West  Level Estimated
Tue 06:05:00 AM 59.6061 26.4299 298° West  Level Estimated
Tue 06:06:00 AM 59.6580 26.2323 298° West  Level Estimated
Tue 06:07:00 AM 59.7096 26.0340 297° West  Level Estimated
Tue 06:08:00 AM 59.7608 25.8351 297° West  Level Estimated
Tue 06:09:00 AM 59.8118 25.6357 297° West  Level Estimated
Tue 06:10:00 AM 59.8625 25.4356 297° West  Level Estimated
Tue 06:11:00 AM 59.9129 25.2349 297° West  Level Estimated
Tue 06:12:00 AM 59.9629 25.0336 296° West  Level Estimated
Tue 06:13:00 AM 60.0127 24.8317 296° West  Level Estimated
Tue 06:14:00 AM 60.0621 24.6292 296° West  Level Estimated
Tue 06:15:00 AM 60.1113 24.4261 296° West  Level Estimated
Tue 06:16:00 AM 60.1601 24.2223 296° West  Level Estimated
Tue 06:17:00 AM 60.2086 24.0180 296° West  Level Estimated
Tue 06:18:00 AM 60.2568 23.8131 295° West  Level Estimated
Tue 06:19:00 AM 60.3047 23.6076 295° West  Level Estimated
Tue 06:20:00 AM 60.3523 23.4014 295° West  Level Estimated
Tue 06:21:00 AM 60.3995 23.1947 295° West  Level Estimated
Tue 06:22:00 AM 60.4464 22.9874 295° West  Level Estimated
Tue 06:23:00 AM 60.4930 22.7794 295° West  Level Estimated
Tue 06:24:00 AM 60.5393 22.5709 294° West  Level Estimated
Tue 06:25:00 AM 60.5853 22.3618 294° West  Level Estimated
Tue 06:26:00 AM 60.6309 22.1521 294° West  Level Estimated
Tue 06:26:41 AM 58.8446 21.3943 294° West 431 496 36,000  Level FlightAware ADS-B
Tue 06:29:00 AM 58.9481 20.9309 294° West  Level Estimated
Tue 06:29:12 AM 58.9432 20.8539 294° West 413 475 34,200  Level FlightAware ADS-B
Tue 06:30:55 AM 59.0642 20.5600 293° West 406 467 32,100 -1,446 Descending FlightAware ADS-B
Tue 06:31:00 AM 59.0222 20.4918 293° West  Level Estimated
Tue 06:31:58 AM 59.1372 20.3829 309° West 394 453 30,200  Level FlightAware ADS-B
Tue 06:32:43 AM 59.1891 20.2563 309° West 392 451 28,800 -1,923 Descending FlightAware ADS-B
Tue 06:33:16 AM 59.2258 20.1663 309° West 389 448 27,700 -1,823 Descending FlightAware ADS-B
Tue 06:34:02 AM 59.2765 20.0416 309° West 375 432 26,400 -1,744 Descending FlightAware ADS-B
Tue 06:34:42 AM 59.3197 19.9348 308° West 372 428 25,200 -1,778 Descending FlightAware ADS-B
Tue 06:35:23 AM 59.3640 19.8244 308° West 373 429 24,000 -1,800 Descending FlightAware ADS-B
Tue 06:36:02 AM 59.4054 19.7212 308° West 367 422 22,800 -1,800 Descending FlightAware ADS-B
Tue 06:36:43 AM 59.4478 19.6146 308° West 366 421 21,600 -1,926 Descending FlightAware ADS-B
Tue 06:37:23 AM 59.4885 19.5121 308° West 366 421 20,200 -1,725 Descending FlightAware ADS-B
Tue 06:38:03 AM 59.5292 19.4091 308° West 347 399 19,300 -1,725 Descending FlightAware ADS-B
Tue 06:38:43 AM 59.5686 19.3088 308° West 347 399 17,900 -2,250 Descending FlightAware ADS-B
Tue 06:39:23 AM 59.6095 19.2044 308° West 350 403 16,300 -2,430 Descending FlightAware ADS-B
Tue 06:40:02 AM 59.6464 19.1024 306° West 356 410 14,700 -2,385 Descending FlightAware ADS-B
Tue 06:40:41 AM 59.6710 18.9919 294° West 327 376 13,200 -3,185 Descending FlightAware ADS-B
Tue 06:41:23 AM 59.6956 18.8763 293° West 315 362 10,400 -4,161 Descending FlightAware ADS-B
Tue 06:41:43 AM 59.7069 18.8232 293° West 323 372 8,900 -3,846 Descending FlightAware ADS-B
Tue 06:42:02 AM 59.7185 18.7712 294° West 312 359 7,900 -3,300 Descending FlightAware ADS-B
Tue 06:42:23 AM 59.7306 18.7196 295° West 304 350 6,700 -3,366 Descending FlightAware ADS-B
Tue 06:42:43 AM 59.7424 18.6705 296° West 301 346 5,600 -2,400 Descending FlightAware ADS-B
Tue 06:43:03 AM 59.7545 18.6212 296° West 274 315 5,100 -750 Descending FlightAware ADS-B
Tue 06:43:23 AM 59.7649 18.5792 296° West 255 293 5,100 -150 Level FlightAware ADS-B
Tue 06:43:43 AM 59.7755 18.5371 296° West 251 289 5,000 -150 Descending FlightAware ADS-B
Tue 06:44:03 AM 59.7854 18.4952 295° West 248 285 5,000 -308 Level FlightAware ADS-B
Tue 06:44:22 AM 59.7917 18.4545 287° West 242 278 4,800 -615 Descending FlightAware ADS-B
Tue 06:44:42 AM 59.7976 18.4133 286° West 223 257 4,600 -585 Descending FlightAware ADS-B
Tue 06:45:03 AM 59.8030 18.3748 286° West 208 239 4,400 -585 Descending FlightAware ADS-B
Tue 06:45:23 AM 59.8057 18.3364 278° West 198 228 4,200 -462 Descending FlightAware ADS-B
Tue 06:45:42 AM 59.8068 18.3038 274° West 184 212 4,100 -308 Descending FlightAware ADS-B
Tue 06:46:02 AM 59.8078 18.2712 273° West 171 197 4,000 -439 Descending FlightAware ADS-B
Tue 06:46:23 AM 59.8085 18.2396 273° West 159 183 3,800 -714 Descending FlightAware ADS-B
Tue 06:46:44 AM 59.8090 18.2107 272° West 153 176 3,500 -1,050 Descending FlightAware ADS-B
Tue 06:47:03 AM 59.8093 18.1838 271° West 158 182 3,100 -1,231 Descending FlightAware ADS-B
Tue 06:47:23 AM 59.8096 18.1538 271° West 160 184 2,700 -1,050 Descending FlightAware ADS-B
Tue 06:47:43 AM 59.8096 18.1245 270° West 161 185 2,400 -615 Descending FlightAware ADS-B
Tue 06:48:02 AM 59.8097 18.0967 270° West 157 181 2,300 -300 Descending FlightAware ADS-B
Tue 06:48:23 AM 59.8096 18.0670 270° West 159 183 2,200  Descending FlightAware ADS-B
Tue 06:48:43 AM 59.8043 18.0397 249° West 169 194 2,300  Climbing FlightAware ADS-B
Tue 06:49:02 AM 59.7925 18.0212 218° Southwest 178 205 2,200 -308 Descending FlightAware ADS-B
Tue 06:50:01 AM 59.7470 17.9947 196° South 164 189 1,900 -450 Descending FlightAware ADS-B
Tue 06:50:22 AM 59.7310 17.9889 190° South 150 173 1,600 -878 Descending FlightAware ADS-B
Tue 06:50:42 AM 59.7174 17.9837 191° South 147 169 1,300 -878 Descending FlightAware ADS-B
Tue 06:51:03 AM 59.7039 17.9788 190° South 145 167 1,000 -789 Descending FlightAware ADS-B
Tue 06:51:20 AM 59.6927 17.9748 190° South 131 151 800 -706 Descending FlightAware ADS-B
Tue 06:53:00 AM 59.7582 17.6261 291° West  Level Estimated
Tue 06:54:00 AM 59.7971 17.4162 290° West  Level Estimated
Tue 06:55:00 AM 59.8357 17.2058 290° West  Level Estimated
Tue 06:56:00 AM 59.8739 16.9949 290° West  Level Estimated
Tue 06:57:00 AM 59.9118 16.7836 290° West  Level Estimated
Tue 06:58:00 AM 59.9493 16.5718 290° West  Level Estimated
Tue 06:59:00 AM 59.9865 16.3595 289° West  Level Estimated
Tue 07:00:00 AM 60.0233 16.1467 289° West  Level Estimated
Tue 07:01:00 AM 60.0599 15.9334 289° West  Level Estimated
Tue 07:02:00 AM 60.0960 15.7197 289° West  Level Estimated
Tue 07:03:00 AM 60.1319 15.5055 289° West  Level Estimated
Tue 07:04:00 AM 60.1673 15.2908 288° West  Level Estimated
Tue 07:05:00 AM 60.2025 15.0757 288° West  Level Estimated
Tue 07:06:00 AM 60.2373 14.8601 288° West  Level Estimated
Tue 07:07:00 AM 60.2717 14.6441 288° West  Level Estimated
Tue 07:08:00 AM 60.3058 14.4276 288° West  Level Estimated
Tue 07:09:00 AM 60.3395 14.2107 288° West  Level Estimated
Tue 07:10:00 AM 60.3729 13.9933 287° West  Level Estimated
Tue 07:11:00 AM 60.4059 13.7754 287° West  Level Estimated
Tue 07:12:00 AM 60.4385 13.5572 287° West  Level Estimated
Tue 07:13:00 AM 60.4708 13.3385 287° West  Level Estimated
Tue 07:14:00 AM 60.5028 13.1193 287° West  Level Estimated
Tue 07:15:00 AM 60.5344 12.8997 286° West  Level Estimated
Tue 07:16:00 AM 60.5656 12.6798 286° West  Level Estimated
Tue 07:17:00 AM 60.5965 12.4593 286° West  Level Estimated
Tue 07:18:00 AM 60.6270 12.2385 286° West  Level Estimated
Tue 07:19:00 AM 60.6571 12.0172 286° West  Level Estimated
Tue 07:20:00 AM 60.6869 11.7956 285° West  Level Estimated
Tue 07:21:00 AM 60.7163 11.5735 285° West  Level Estimated
Tue 07:22:00 AM 60.7453 11.3510 285° West  Level Estimated
Tue 07:23:00 AM 60.7740 11.1281 285° West  Level Estimated
Tue 07:24:00 AM 60.8023 10.9049 285° West  Level Estimated
Tue 07:25:00 AM 60.8302 10.6812 284° West  Level Estimated
Tue 07:26:00 AM 60.8577 10.4571 284° West  Level Estimated
Tue 07:27:00 AM 60.8849 10.2327 284° West  Level Estimated
Tue 07:28:00 AM 60.9117 10.0079 284° West  Level Estimated
Tue 07:29:00 AM 60.9381 9.7827 284° West  Level Estimated
Tue 07:30:00 AM 60.9642 9.5571 283° West  Level Estimated
Tue 07:31:00 AM 60.9899 9.3312 283° West  Level Estimated
Tue 07:32:00 AM 61.0152 9.1049 283° West  Level Estimated
Tue 07:33:00 AM 61.0401 8.8782 283° West  Level Estimated
Tue 07:34:00 AM 61.0646 8.6512 283° West  Level Estimated
Tue 07:35:00 AM 61.0888 8.4239 282° West  Level Estimated
Tue 07:36:00 AM 61.1125 8.1962 282° West  Level Estimated
Tue 07:37:00 AM 61.1359 7.9681 282° West  Level Estimated
Tue 07:38:00 AM 61.1590 7.7397 282° West  Level Estimated
Tue 07:39:00 AM 61.1816 7.5110 282° West  Level Estimated
Tue 07:40:00 AM 61.2038 7.2820 281° West  Level Estimated
Tue 07:41:00 AM 61.2257 7.0526 281° West  Level Estimated
Tue 07:42:00 AM 61.2471 6.8230 281° West  Level Estimated
Tue 07:43:00 AM 61.2682 6.5930 281° West  Level Estimated
Tue 07:44:00 AM 61.2889 6.3627 281° West  Level Estimated
Tue 07:45:00 AM 61.3092 6.1321 280° West  Level Estimated
Tue 07:46:00 AM 61.3290 5.9012 280° West  Level Estimated
Tue 07:47:00 AM 61.3486 5.6701 280° West  Level Estimated
Tue 07:48:00 AM 61.3677 5.4386 280° West  Level Estimated
Tue 07:49:00 AM 61.3864 5.2069 280° West  Level Estimated
Tue 07:50:00 AM 61.4047 4.9749 279° West  Level Estimated
Tue 07:51:00 AM 61.4226 4.7426 279° West  Level Estimated
Tue 07:52:00 AM 61.4402 4.5100 279° West  Level Estimated
Tue 07:53:00 AM 61.4573 4.2772 279° West  Level Estimated
Tue 07:54:00 AM 61.4741 4.0442 279° West  Level Estimated
Tue 07:55:00 AM 61.4904 3.8108 278° West  Level Estimated
Tue 07:56:00 AM 61.5063 3.5773 278° West  Level Estimated
Tue 07:57:00 AM 61.5219 3.3435 278° West  Level Estimated
Tue 07:58:00 AM 61.5370 3.1095 278° West  Level Estimated
Tue 07:59:00 AM 61.5518 2.8753 278° West  Level Estimated
Tue 08:00:00 AM 61.5661 2.6408 277° West  Level Estimated
Tue 08:01:00 AM 61.5800 2.4061 277° West  Level Estimated
Tue 08:02:00 AM 61.5936 2.1712 277° West  Level Estimated
Tue 08:03:00 AM 61.6067 1.9361 277° West  Level Estimated
Tue 08:04:00 AM 61.6194 1.7009 277° West  Level Estimated
Tue 08:05:00 AM 61.6318 1.4654 276° West  Level Estimated
Tue 08:06:00 AM 61.6437 1.2297 276° West  Level Estimated
Tue 08:07:00 AM 61.6552 0.9939 276° West  Level Estimated
Tue 08:08:00 AM 61.6663 0.7579 276° West  Level Estimated
Tue 08:09:00 AM 61.6770 0.5217 276° West  Level Estimated
Tue 08:10:00 AM 61.6873 0.2854 275° West  Level Estimated
Tue 08:11:00 AM 61.6972 0.0489 275° West  Level Estimated
Tue 08:12:00 AM 61.7067 -0.1878 275° West  Level Estimated
Tue 08:13:00 AM 61.7157 -0.4245 275° West  Level Estimated
Tue 08:14:00 AM 61.7244 -0.6615 275° West  Level Estimated
Tue 08:15:00 AM 61.7326 -0.8985 274° West  Level Estimated
Tue 08:16:00 AM 61.7405 -1.1357 274° West  Level Estimated
Tue 08:17:00 AM 61.7479 -1.3730 274° West  Level Estimated
Tue 08:18:00 AM 61.7550 -1.6104 274° West  Level Estimated
Tue 08:19:00 AM 61.7616 -1.8479 273° West  Level Estimated
Tue 08:20:00 AM 61.7678 -2.0855 273° West  Level Estimated
Tue 08:21:00 AM 61.7735 -2.3232 273° West  Level Estimated
Tue 08:22:00 AM 61.7789 -2.5610 273° West  Level Estimated
Tue 08:23:00 AM 61.7839 -2.7988 273° West  Level Estimated
Tue 08:24:00 AM 61.7885 -3.0368 272° West  Level Estimated
Tue 08:25:00 AM 61.7926 -3.2748 272° West  Level Estimated
Tue 08:26:00 AM 61.7963 -3.5129 272° West  Level Estimated
Tue 08:27:00 AM 61.7997 -3.7510 272° West  Level Estimated
Tue 08:28:00 AM 61.8026 -3.9892 272° West  Level Estimated
Tue 08:29:00 AM 61.8051 -4.2274 271° West  Level Estimated
Tue 08:30:00 AM 61.8072 -4.4656 271° West  Level Estimated
Tue 08:31:00 AM 61.8088 -4.7039 271° West  Level Estimated
Tue 08:32:00 AM 61.8101 -4.9422 271° West  Level Estimated
Tue 08:33:00 AM 61.8110 -5.1805 271° West  Level Estimated
Tue 08:34:00 AM 61.8114 -5.4188 270° West  Level Estimated
Tue 08:35:00 AM 61.8114 -5.6572 270° West  Level Estimated
Tue 08:36:00 AM 61.8110 -5.8955 270° West  Level Estimated
Tue 08:37:00 AM 61.8102 -6.1338 270° West  Level Estimated
Tue 08:38:00 AM 61.8090 -6.3721 269° West  Level Estimated
Tue 08:39:00 AM 61.8074 -6.6104 269° West  Level Estimated
Tue 08:40:00 AM 61.8053 -6.8486 269° West  Level Estimated
Tue 08:41:00 AM 61.8029 -7.0869 269° West  Level Estimated
Tue 08:42:00 AM 61.8000 -7.3250 269° West  Level Estimated
Tue 08:43:00 AM 61.7967 -7.5632 268° West  Level Estimated
Tue 08:44:00 AM 61.7931 -7.8012 268° West  Level Estimated
Tue 08:45:00 AM 61.7890 -8.0393 268° West  Level Estimated
Tue 08:46:00 AM 61.7845 -8.2772 268° West  Level Estimated
Tue 08:47:00 AM 61.7795 -8.5151 268° West  Level Estimated
Tue 08:48:00 AM 61.7742 -8.7529 267° West  Level Estimated
Tue 08:49:00 AM 61.7684 -8.9906 267° West  Level Estimated
Tue 08:50:00 AM 61.7623 -9.2282 267° West  Level Estimated
Tue 08:51:00 AM 61.7557 -9.4657 267° West  Level Estimated
Tue 08:52:00 AM 61.7487 -9.7031 267° West  Level Estimated
Tue 08:53:00 AM 61.7413 -9.9404 266° West  Level Estimated
Tue 08:54:00 AM 61.7335 -10.1776 266° West  Level Estimated
Tue 08:55:00 AM 61.7253 -10.4147 266° West  Level Estimated
Tue 08:56:00 AM 61.7167 -10.6516 266° West  Level Estimated
Tue 08:57:00 AM 61.7077 -10.8884 266° West  Level Estimated
Tue 08:58:00 AM 61.6982 -11.1251 265° West  Level Estimated
Tue 08:59:00 AM 61.6884 -11.3616 265° West  Level Estimated
Tue 09:00:00 AM 61.6782 -11.5979 265° West  Level Estimated
Tue 09:01:00 AM 61.6675 -11.8341 265° West  Level Estimated
Tue 09:02:00 AM 61.6564 -12.0702 264° West  Level Estimated
Tue 09:03:00 AM 61.6450 -12.3060 264° West  Level Estimated
Tue 09:04:00 AM 61.6331 -12.5417 264° West  Level Estimated
Tue 09:05:00 AM 61.6208 -12.7772 264° West  Level Estimated
Tue 09:06:00 AM 61.6081 -13.0125 264° West  Level Estimated
Tue 09:07:00 AM 61.5951 -13.2476 263° West  Level Estimated
Tue 09:08:00 AM 61.5816 -13.4825 263° West  Level Estimated
Tue 09:09:00 AM 61.5677 -13.7172 263° West  Level Estimated
Tue 09:10:00 AM 61.5534 -13.9517 263° West  Level Estimated
Tue 09:11:00 AM 61.5387 -14.1860 263° West  Level Estimated
Tue 09:12:00 AM 61.5236 -14.4200 262° West  Level Estimated
Tue 09:13:00 AM 61.5081 -14.6538 262° West  Level Estimated
Tue 09:14:00 AM 61.4922 -14.8874 262° West  Level Estimated
Tue 09:15:00 AM 61.4759 -15.1207 262° West  Level Estimated
Tue 09:16:00 AM 61.4592 -15.3538 262° West  Level Estimated
Tue 09:17:00 AM 61.4421 -15.5867 261° West  Level Estimated
Tue 09:18:00 AM 61.4246 -15.8192 261° West  Level Estimated
Tue 09:19:00 AM 61.4067 -16.0515 261° West  Level Estimated
Tue 09:20:00 AM 61.3884 -16.2836 261° West  Level Estimated
Tue 09:21:00 AM 61.3698 -16.5154 261° West  Level Estimated
Tue 09:22:00 AM 61.3507 -16.7469 260° West  Level Estimated
Tue 09:23:00 AM 61.3312 -16.9781 260° West  Level Estimated
Tue 09:24:00 AM 61.3114 -17.2090 260° West  Level Estimated
Tue 09:25:00 AM 61.2911 -17.4396 260° West  Level Estimated
Tue 09:26:00 AM 61.2705 -17.6699 260° West  Level Estimated
Tue 09:27:00 AM 61.2495 -17.9000 259° West  Level Estimated
Tue 09:28:00 AM 61.2280 -18.1297 259° West  Level Estimated
Tue 09:29:00 AM 61.2062 -18.3591 259° West  Level Estimated
Tue 09:30:00 AM 61.1841 -18.5881 259° West  Level Estimated
Tue 09:31:00 AM 61.1615 -18.8169 259° West  Level Estimated
Tue 09:32:00 AM 61.1385 -19.0453 258° West  Level Estimated
Tue 09:33:00 AM 61.1152 -19.2734 258° West  Level Estimated
Tue 09:34:00 AM 61.0914 -19.5011 258° West  Level Estimated
Tue 09:35:00 AM 61.0673 -19.7285 258° West  Level Estimated
Tue 09:36:00 AM 61.0428 -19.9556 258° West  Level Estimated
Tue 09:37:00 AM 61.0180 -20.1822 257° West  Level Estimated
Tue 09:38:00 AM 60.9927 -20.4086 257° West  Level Estimated
Tue 09:39:00 AM 60.9671 -20.6346 257° West  Level Estimated
Tue 09:40:00 AM 60.9411 -20.8602 257° West  Level Estimated
Tue 09:41:00 AM 60.9147 -21.0854 257° West  Level Estimated
Tue 09:42:00 AM 60.8879 -21.3103 256° West  Level Estimated
Tue 09:43:00 AM 60.8608 -21.5347 256° West  Level Estimated
Tue 09:44:00 AM 60.8333 -21.7589 256° West  Level Estimated
Tue 09:45:00 AM 60.8054 -21.9826 256° West  Level Estimated
Tue 09:46:00 AM 60.7771 -22.2059 256° West  Level Estimated
Tue 09:47:00 AM 60.7485 -22.4288 255° West  Level Estimated
Tue 09:48:00 AM 60.7195 -22.6513 255° West  Level Estimated
Tue 09:49:00 AM 60.6902 -22.8734 255° West  Level Estimated
Tue 09:50:00 AM 60.6604 -23.0951 255° West  Level Estimated
Tue 09:51:00 AM 60.6303 -23.3165 255° West  Level Estimated
Tue 09:52:00 AM 60.5999 -23.5373 254° West  Level Estimated
Tue 09:53:00 AM 60.5691 -23.7578 254° West  Level Estimated
Tue 09:54:00 AM 60.5379 -23.9778 254° West  Level Estimated
Tue 09:55:00 AM 60.5063 -24.1975 254° West  Level Estimated
Tue 09:56:00 AM 60.4744 -24.4167 254° West  Level Estimated
Tue 09:57:00 AM 60.4422 -24.6354 253° West  Level Estimated
Tue 09:58:00 AM 60.4095 -24.8537 253° West  Level Estimated
Tue 09:59:00 AM 60.3766 -25.0716 253° West  Level Estimated
Tue 10:00:00 AM 60.3432 -25.2891 253° West  Level Estimated
Tue 10:01:00 AM 60.3096 -25.5061 253° West  Level Estimated
Tue 10:02:00 AM 60.2755 -25.7226 252° West  Level Estimated
Tue 10:03:00 AM 60.2411 -25.9387 252° West  Level Estimated
Tue 10:04:00 AM 60.2064 -26.1543 252° West  Level Estimated
Tue 10:05:00 AM 60.1713 -26.3695 252° West  Level Estimated
Tue 10:06:00 AM 60.1358 -26.5842 252° West  Level Estimated
Tue 10:07:00 AM 60.1001 -26.7984 252° West  Level Estimated
Tue 10:08:00 AM 60.0639 -27.0122 251° West  Level Estimated
Tue 10:09:00 AM 60.0275 -27.2255 251° West  Level Estimated
Tue 10:10:00 AM 59.9906 -27.4384 251° West  Level Estimated
Tue 10:11:00 AM 59.9535 -27.6507 251° West  Level Estimated
Tue 10:12:00 AM 59.9160 -27.8626 251° West  Level Estimated
Tue 10:13:00 AM 59.8781 -28.0740 250° West  Level Estimated
Tue 10:14:00 AM 59.8400 -28.2849 250° West  Level Estimated
Tue 10:15:00 AM 59.8014 -28.4954 250° West  Level Estimated
Tue 10:16:00 AM 59.7626 -28.7053 250° West  Level Estimated
Tue 10:17:00 AM 59.7234 -28.9148 250° West  Level Estimated
Tue 10:18:00 AM 59.6839 -29.1238 250° West  Level Estimated
Tue 10:19:00 AM 59.6440 -29.3322 249° West  Level Estimated
Tue 10:20:00 AM 59.6039 -29.5402 249° West  Level Estimated
Tue 10:21:00 AM 59.5634 -29.7477 249° West  Level Estimated
Tue 10:22:00 AM 59.5225 -29.9547 249° West  Level Estimated
Tue 10:23:00 AM 59.4814 -30.1611 249° West  Level Estimated
Tue 10:24:00 AM 59.4399 -30.3671 248° West  Level Estimated
Tue 10:25:00 AM 59.3981 -30.5726 248° West  Level Estimated
Tue 10:26:00 AM 59.3559 -30.7775 248° West  Level Estimated
Tue 10:27:00 AM 59.3135 -30.9820 248° West  Level Estimated
Tue 10:28:00 AM 59.2707 -31.1859 248° West  Level Estimated
Tue 10:29:00 AM 59.2276 -31.3893 248° West  Level Estimated
Tue 10:30:00 AM 59.1842 -31.5922 247° West  Level Estimated
Tue 10:31:00 AM 59.1405 -31.7946 247° West  Level Estimated
Tue 10:32:00 AM 59.0965 -31.9965 247° West  Level Estimated
Tue 10:33:00 AM 59.0521 -32.1978 247° West  Level Estimated
Tue 10:34:00 AM 59.0075 -32.3987 247° West  Level Estimated
Tue 10:35:00 AM 58.9625 -32.5990 247° West  Level Estimated
Tue 10:36:00 AM 58.9172 -32.7987 246° West  Level Estimated
Tue 10:37:00 AM 58.8716 -32.9980 246° West  Level Estimated
Tue 10:38:00 AM 58.8257 -33.1967 246° West  Level Estimated
Tue 10:39:00 AM 58.7796 -33.3949 246° West  Level Estimated
Tue 10:40:00 AM 58.7331 -33.5926 246° West  Level Estimated
Tue 10:41:00 AM 58.6863 -33.7898 246° West  Level Estimated
Tue 10:42:00 AM 58.6392 -33.9864 245° Southwest  Level Estimated
Tue 10:43:00 AM 58.5918 -34.1825 245° Southwest  Level Estimated
Tue 10:44:00 AM 58.5441 -34.3780 245° Southwest  Level Estimated
Tue 10:45:00 AM 58.4961 -34.5730 245° Southwest  Level Estimated
Tue 10:46:00 AM 58.4478 -34.7675 245° Southwest  Level Estimated
Tue 10:47:00 AM 58.3992 -34.9615 245° Southwest  Level Estimated
Tue 10:48:00 AM 58.3503 -35.1549 244° Southwest  Level Estimated
Tue 10:49:00 AM 58.3012 -35.3478 244° Southwest  Level Estimated
Tue 10:50:00 AM 58.2517 -35.5401 244° Southwest  Level Estimated
Tue 10:51:00 AM 58.2020 -35.7319 244° Southwest  Level Estimated
Tue 10:52:00 AM 58.1520 -35.9232 244° Southwest  Level Estimated
Tue 10:53:00 AM 58.1016 -36.1139 244° Southwest  Level Estimated
Tue 10:54:00 AM 58.0510 -36.3041 243° Southwest  Level Estimated
Tue 10:55:00 AM 58.0002 -36.4938 243° Southwest  Level Estimated
Tue 10:56:00 AM 57.9490 -36.6829 243° Southwest  Level Estimated
Tue 10:57:00 AM 57.8976 -36.8714 243° Southwest  Level Estimated
Tue 10:58:00 AM 57.8458 -37.0595 243° Southwest  Level Estimated
Tue 10:59:00 AM 57.7938 -37.2470 243° Southwest  Level Estimated
Tue 11:00:00 AM 57.7416 -37.4339 242° Southwest  Level Estimated
Tue 11:01:00 AM 57.6890 -37.6203 242° Southwest  Level Estimated
Tue 11:02:00 AM 57.6362 -37.8062 242° Southwest  Level Estimated
Tue 11:03:00 AM 57.5831 -37.9915 242° Southwest  Level Estimated
Tue 11:04:00 AM 57.5298 -38.1763 242° Southwest  Level Estimated
Tue 11:05:00 AM 57.4761 -38.3605 242° Southwest  Level Estimated
Tue 11:06:00 AM 57.4222 -38.5443 241° Southwest  Level Estimated
Tue 11:07:00 AM 57.3680 -38.7274 241° Southwest  Level Estimated
Tue 11:08:00 AM 57.3136 -38.9100 241° Southwest  Level Estimated
Tue 11:09:00 AM 57.2589 -39.0921 241° Southwest  Level Estimated
Tue 11:10:00 AM 57.2040 -39.2737 241° Southwest  Level Estimated
Tue 11:11:00 AM 57.1487 -39.4546 241° Southwest  Level Estimated
Tue 11:12:00 AM 57.0933 -39.6351 241° Southwest  Level Estimated
Tue 11:13:00 AM 57.0375 -39.8150 240° Southwest  Level Estimated
Tue 11:14:00 AM 56.9815 -39.9944 240° Southwest  Level Estimated
Tue 11:15:00 AM 56.9253 -40.1732 240° Southwest  Level Estimated
Tue 11:16:00 AM 56.8688 -40.3515 240° Southwest  Level Estimated
Tue 11:17:00 AM 56.8120 -40.5292 240° Southwest  Level Estimated
Tue 11:18:00 AM 56.7550 -40.7065 240° Southwest  Level Estimated
Tue 11:19:00 AM 56.6978 -40.8831 240° Southwest  Level Estimated
Tue 11:20:00 AM 56.6402 -41.0593 239° Southwest  Level Estimated
Tue 11:21:00 AM 56.5825 -41.2349 239° Southwest  Level Estimated
Tue 11:22:00 AM 56.5245 -41.4100 239° Southwest  Level Estimated
Tue 11:23:00 AM 56.4662 -41.5845 239° Southwest  Level Estimated
Tue 11:24:00 AM 56.4077 -41.7585 239° Southwest  Level Estimated
Tue 11:25:00 AM 56.3490 -41.9319 239° Southwest  Level Estimated
Tue 11:26:00 AM 56.2900 -42.1049 238° Southwest  Level Estimated
Tue 11:27:00 AM 56.2308 -42.2772 238° Southwest  Level Estimated
Tue 11:28:00 AM 56.1713 -42.4491 238° Southwest  Level Estimated
Tue 11:29:00 AM 56.1116 -42.6204 238° Southwest  Level Estimated
Tue 11:30:00 AM 56.0517 -42.7912 238° Southwest  Level Estimated
Tue 11:31:00 AM 55.9916 -42.9615 238° Southwest  Level Estimated
Tue 11:32:00 AM 55.9311 -43.1312 238° Southwest  Level Estimated
Tue 11:33:00 AM 55.8705 -43.3004 237° Southwest  Level Estimated
Tue 11:34:00 AM 55.8097 -43.4691 237° Southwest  Level Estimated
Tue 11:35:00 AM 55.7486 -43.6372 237° Southwest  Level Estimated
Tue 11:36:00 AM 55.6872 -43.8048 237° Southwest  Level Estimated
Tue 11:37:00 AM 55.6257 -43.9719 237° Southwest  Level Estimated
Tue 11:38:00 AM 55.5639 -44.1385 237° Southwest  Level Estimated
Tue 11:39:00 AM 55.5019 -44.3045 237° Southwest  Level Estimated
Tue 11:40:00 AM 55.4397 -44.4701 237° Southwest  Level Estimated
Tue 11:41:00 AM 55.3772 -44.6351 236° Southwest  Level Estimated
Tue 11:42:00 AM 55.3146 -44.7995 236° Southwest  Level Estimated
Tue 11:43:00 AM 55.2517 -44.9635 236° Southwest  Level Estimated
Tue 11:44:00 AM 55.1886 -45.1269 236° Southwest  Level Estimated
Tue 11:45:00 AM 55.1252 -45.2899 236° Southwest  Level Estimated
Tue 11:46:00 AM 55.0617 -45.4523 236° Southwest  Level Estimated
Tue 11:47:00 AM 54.9979 -45.6142 236° Southwest  Level Estimated
Tue 11:48:00 AM 54.9340 -45.7755 235° Southwest  Level Estimated
Tue 11:49:00 AM 54.8698 -45.9364 235° Southwest  Level Estimated
Tue 11:50:00 AM 54.8054 -46.0967 235° Southwest  Level Estimated
Tue 11:51:00 AM 54.7408 -46.2566 235° Southwest  Level Estimated
Tue 11:52:00 AM 54.6759 -46.4159 235° Southwest  Level Estimated
Tue 11:53:00 AM 54.6109 -46.5747 235° Southwest  Level Estimated
Tue 11:54:00 AM 54.5457 -46.7330 235° Southwest  Level Estimated
Tue 11:55:00 AM 54.4803 -46.8908 235° Southwest  Level Estimated
Tue 11:56:00 AM 54.4146 -47.0481 234° Southwest  Level Estimated
Tue 11:57:00 AM 54.3488 -47.2049 234° Southwest  Level Estimated
Tue 11:58:00 AM 54.2827 -47.3612 234° Southwest  Level Estimated
Tue 11:59:00 AM 54.2165 -47.5170 234° Southwest  Level Estimated
Tue 12:00:00 PM 54.1500 -47.6723 234° Southwest  Level Estimated
Tue 12:01:00 PM 54.0834 -47.8271 234° Southwest  Level Estimated
Tue 12:02:00 PM 54.0165 -47.9814 234° Southwest  Level Estimated
Tue 12:03:00 PM 53.9495 -48.1352 234° Southwest  Level Estimated
Tue 12:04:00 PM 53.8822 -48.2885 233° Southwest  Level Estimated
Tue 12:05:00 PM 53.8148 -48.4413 233° Southwest  Level Estimated
Tue 12:06:00 PM 53.7472 -48.5936 233° Southwest  Level Estimated
Tue 12:07:00 PM 53.6793 -48.7455 233° Southwest  Level Estimated
Tue 12:08:00 PM 53.6113 -48.8968 233° Southwest  Level Estimated
Tue 12:09:00 PM 53.5431 -49.0477 233° Southwest  Level Estimated
Tue 12:10:00 PM 53.4747 -49.1980 233° Southwest  Level Estimated
Tue 12:11:00 PM 53.4062 -49.3479 233° Southwest  Level Estimated
Tue 12:12:00 PM 53.3374 -49.4973 232° Southwest  Level Estimated
Tue 12:13:00 PM 53.2684 -49.6462 232° Southwest  Level Estimated
Tue 12:14:00 PM 53.1993 -49.7947 232° Southwest  Level Estimated
Tue 12:15:00 PM 53.1300 -49.9426 232° Southwest  Level Estimated
Tue 12:16:00 PM 53.0605 -50.0901 232° Southwest  Level Estimated
Tue 12:17:00 PM 52.9908 -50.2371 232° Southwest  Level Estimated
Tue 12:18:00 PM 52.9209 -50.3837 232° Southwest  Level Estimated
Tue 12:19:00 PM 52.8508 -50.5297 232° Southwest  Level Estimated
Tue 12:20:00 PM 52.7806 -50.6753 231° Southwest  Level Estimated
Tue 12:21:00 PM 52.7102 -50.8204 231° Southwest  Level Estimated
Tue 12:22:00 PM 52.6396 -50.9651 231° Southwest  Level Estimated
Tue 12:23:00 PM 52.5689 -51.1093 231° Southwest  Level Estimated
Tue 12:24:00 PM 52.4979 -51.2530 231° Southwest  Level Estimated
Tue 12:25:00 PM 52.4268 -51.3963 231° Southwest  Level Estimated
Tue 12:26:00 PM 52.3555 -51.5390 231° Southwest  Level Estimated
Tue 12:27:00 PM 52.2841 -51.6814 231° Southwest  Level Estimated
Tue 12:28:00 PM 52.2125 -51.8232 231° Southwest  Level Estimated
Tue 12:29:00 PM 52.1407 -51.9647 230° Southwest  Level Estimated
Tue 12:30:00 PM 52.0687 -52.1056 230° Southwest  Level Estimated
Tue 12:31:00 PM 51.9966 -52.2461 230° Southwest  Level Estimated
Tue 12:32:00 PM 51.9243 -52.3862 230° Southwest  Level Estimated
Tue 12:33:00 PM 51.8518 -52.5258 230° Southwest  Level Estimated
Tue 12:34:00 PM 51.7792 -52.6650 230° Southwest  Level Estimated
Tue 12:35:00 PM 51.7064 -52.8037 230° Southwest  Level Estimated
Tue 12:36:00 PM 51.6335 -52.9419 230° Southwest  Level Estimated
Tue 12:37:00 PM 51.5604 -53.0798 230° Southwest  Level Estimated
Tue 12:38:00 PM 51.4871 -53.2171 229° Southwest  Level Estimated
Tue 12:39:00 PM 51.4137 -53.3541 229° Southwest  Level Estimated
Tue 12:40:00 PM 51.3401 -53.4906 229° Southwest  Level Estimated
Tue 12:41:00 PM 51.2663 -53.6266 229° Southwest  Level Estimated
Tue 12:42:00 PM 51.1924 -53.7622 229° Southwest  Level Estimated
Tue 12:43:00 PM 51.1184 -53.8974 229° Southwest  Level Estimated
Tue 12:44:00 PM 51.0441 -54.0322 229° Southwest  Level Estimated
Tue 12:45:00 PM 50.9698 -54.1665 229° Southwest  Level Estimated
Tue 12:46:00 PM 50.8952 -54.3004 229° Southwest  Level Estimated
Tue 12:47:00 PM 50.8206 -54.4338 228° Southwest  Level Estimated
Tue 12:48:00 PM 50.7457 -54.5669 228° Southwest  Level Estimated
Tue 12:49:00 PM 50.6707 -54.6995 228° Southwest  Level Estimated
Tue 12:50:00 PM 50.5956 -54.8317 228° Southwest  Level Estimated
Tue 12:51:00 PM 50.5203 -54.9634 228° Southwest  Level Estimated
Tue 12:52:00 PM 50.4449 -55.0948 228° Southwest  Level Estimated
Tue 12:53:00 PM 50.3693 -55.2257 228° Southwest  Level Estimated
Tue 12:54:00 PM 50.2936 -55.3562 228° Southwest  Level Estimated
Tue 12:55:00 PM 50.2177 -55.4863 228° Southwest  Level Estimated
Tue 12:56:00 PM 50.1417 -55.6160 228° Southwest  Level Estimated
Tue 12:57:00 PM 50.0656 -55.7452 227° Southwest  Level Estimated
Tue 12:58:00 PM 49.9893 -55.8741 227° Southwest  Level Estimated
Tue 12:59:00 PM 49.9128 -56.0025 227° Southwest  Level Estimated
Tue 01:00:00 PM 49.8363 -56.1306 227° Southwest  Level Estimated
Tue 01:01:00 PM 49.7595 -56.2582 227° Southwest  Level Estimated
Tue 01:02:00 PM 49.6827 -56.3855 227° Southwest  Level Estimated
Tue 01:03:00 PM 49.6057 -56.5123 227° Southwest  Level Estimated
Tue 01:04:00 PM 49.5285 -56.6387 227° Southwest  Level Estimated
Tue 01:05:00 PM 49.4512 -56.7648 227° Southwest  Level Estimated
Tue 01:06:00 PM 49.3738 -56.8904 227° Southwest  Level Estimated
Tue 01:07:00 PM 49.2963 -57.0156 227° Southwest  Level Estimated
Tue 01:08:00 PM 49.2186 -57.1405 226° Southwest  Level Estimated
Tue 01:09:00 PM 49.1408 -57.2649 226° Southwest  Level Estimated
Tue 01:10:00 PM 49.0628 -57.3890 226° Southwest  Level Estimated
Tue 01:11:00 PM 48.9847 -57.5127 226° Southwest  Level Estimated
Tue 01:12:00 PM 48.9065 -57.6359 226° Southwest  Level Estimated
Tue 01:13:00 PM 48.8282 -57.7589 226° Southwest  Level Estimated
Tue 01:14:00 PM 48.7497 -57.8814 226° Southwest  Level Estimated
Tue 01:15:00 PM 48.6711 -58.0035 226° Southwest  Level Estimated
Tue 01:16:00 PM 48.5923 -58.1253 226° Southwest  Level Estimated
Tue 01:17:00 PM 48.5135 -58.2466 226° Southwest  Level Estimated
Tue 01:18:00 PM 48.4345 -58.3676 225° Southwest  Level Estimated
Tue 01:19:00 PM 48.3554 -58.4883 225° Southwest  Level Estimated
Tue 01:20:00 PM 48.2761 -58.6085 225° Southwest  Level Estimated
Tue 01:21:00 PM 48.1968 -58.7284 225° Southwest  Level Estimated
Tue 01:22:00 PM 48.1173 -58.8479 225° Southwest  Level Estimated
Tue 01:23:00 PM 48.0376 -58.9670 225° Southwest  Level Estimated
Tue 01:24:00 PM 47.9579 -59.0858 225° Southwest  Level Estimated
Tue 01:25:00 PM 47.8780 -59.2042 225° Southwest  Level Estimated
Tue 01:26:00 PM 47.7981 -59.3222 225° Southwest  Level Estimated
Tue 01:27:00 PM 47.7180 -59.4399 225° Southwest  Level Estimated
Tue 01:28:00 PM 47.6377 -59.5572 225° Southwest  Level Estimated
Tue 01:29:00 PM 47.5574 -59.6741 225° Southwest  Level Estimated
Tue 01:30:00 PM 47.4769 -59.7907 224° Southwest  Level Estimated
Tue 01:31:00 PM 47.3964 -59.9070 224° Southwest  Level Estimated
Tue 01:32:00 PM 47.3157 -60.0229 224° Southwest  Level Estimated
Tue 01:33:00 PM 47.2349 -60.1384 224° Southwest  Level Estimated
Tue 01:34:00 PM 47.1539 -60.2536 224° Southwest  Level Estimated
Tue 01:35:00 PM 47.0729 -60.3684 224° Southwest  Level Estimated
Tue 01:36:00 PM 46.9917 -60.4829 224° Southwest  Level Estimated
Tue 01:37:00 PM 46.9104 -60.5970 224° Southwest  Level Estimated
Tue 01:38:00 PM 46.8291 -60.7108 224° Southwest  Level Estimated
Tue 01:39:00 PM 46.7476 -60.8242 224° Southwest  Level Estimated
Tue 01:40:00 PM 46.6660 -60.9373 224° Southwest  Level Estimated
Tue 01:41:00 PM 46.5842 -61.0500 223° Southwest  Level Estimated
Tue 01:42:00 PM 46.5024 -61.1625 223° Southwest  Level Estimated
Tue 01:43:00 PM 46.4205 -61.2745 223° Southwest  Level Estimated
Tue 01:44:00 PM 46.3384 -61.3863 223° Southwest  Level Estimated
Tue 01:45:00 PM 46.2563 -61.4977 223° Southwest  Level Estimated
Tue 01:46:00 PM 46.1740 -61.6087 223° Southwest  Level Estimated
Tue 01:47:00 PM 46.0916 -61.7195 223° Southwest  Level Estimated
Tue 01:48:00 PM 46.0091 -61.8299 223° Southwest  Level Estimated
Tue 01:49:00 PM 45.9266 -61.9400 223° Southwest  Level Estimated
Tue 01:50:00 PM 45.8439 -62.0497 223° Southwest  Level Estimated
Tue 01:51:00 PM 45.7611 -62.1592 223° Southwest  Level Estimated
Tue 01:52:00 PM 45.6782 -62.2683 223° Southwest  Level Estimated
Tue 01:53:00 PM 45.5952 -62.3770 223° Southwest  Level Estimated
Tue 01:54:00 PM 45.5121 -62.4855 222° Southwest  Level Estimated
Tue 01:55:00 PM 45.4288 -62.5936 222° Southwest  Level Estimated
Tue 01:56:00 PM 45.3455 -62.7015 222° Southwest  Level Estimated
Tue 01:57:00 PM 45.2621 -62.8090 222° Southwest  Level Estimated
Tue 01:58:00 PM 45.1786 -62.9161 222° Southwest  Level Estimated
Tue 01:59:00 PM 45.0950 -63.0230 222° Southwest  Level Estimated
Tue 02:00:00 PM 45.0113 -63.1296 222° Southwest  Level Estimated
Tue 02:01:00 PM 44.9275 -63.2358 222° Southwest  Level Estimated
Tue 02:02:00 PM 44.8436 -63.3418 222° Southwest  Level Estimated
Tue 02:03:00 PM 44.7596 -63.4474 222° Southwest  Level Estimated
Tue 02:04:00 PM 44.6755 -63.5527 222° Southwest  Level Estimated
Tue 02:05:00 PM 44.5913 -63.6577 222° Southwest  Level Estimated
Tue 02:06:00 PM 44.5070 -63.7625 222° Southwest  Level Estimated
Tue 02:07:00 PM 44.4226 -63.8669 221° Southwest  Level Estimated
Tue 02:08:00 PM 44.3381 -63.9710 221° Southwest  Level Estimated
Tue 02:09:00 PM 44.2535 -64.0748 221° Southwest  Level Estimated
Tue 02:10:00 PM 44.1688 -64.1783 221° Southwest  Level Estimated
Tue 02:11:00 PM 44.0841 -64.2815 221° Southwest  Level Estimated
Tue 02:12:00 PM 43.9992 -64.3844 221° Southwest  Level Estimated
Tue 02:13:00 PM 43.9142 -64.4870 221° Southwest  Level Estimated
Tue 02:14:00 PM 43.8292 -64.5894 221° Southwest  Level Estimated
Tue 02:15:00 PM 43.7441 -64.6914 221° Southwest  Level Estimated
Tue 02:16:00 PM 43.6589 -64.7932 221° Southwest  Level Estimated
Tue 02:17:00 PM 43.5735 -64.8946 221° Southwest  Level Estimated
Tue 02:18:00 PM 43.4881 -64.9958 221° Southwest  Level Estimated
Tue 02:19:00 PM 43.4026 -65.0967 221° Southwest  Level Estimated
Tue 02:20:00 PM 43.3171 -65.1973 221° Southwest  Level Estimated
Tue 02:21:00 PM 43.2314 -65.2976 220° Southwest  Level Estimated
Tue 02:22:00 PM 43.1456 -65.3976 220° Southwest  Level Estimated
Tue 02:23:00 PM 43.0598 -65.4974 220° Southwest  Level Estimated
Tue 02:24:00 PM 42.9739 -65.5969 220° Southwest  Level Estimated
Tue 02:25:00 PM 42.8878 -65.6961 220° Southwest  Level Estimated
Tue 02:26:00 PM 42.8017 -65.7950 220° Southwest  Level Estimated
Tue 02:27:00 PM 42.7155 -65.8937 220° Southwest  Level Estimated
Tue 02:28:00 PM 42.6293 -65.9920 220° Southwest  Level Estimated
Tue 02:29:00 PM 42.5429 -66.0901 220° Southwest  Level Estimated
Tue 02:30:00 PM 42.4565 -66.1880 220° Southwest  Level Estimated
Tue 02:31:00 PM 42.3700 -66.2855 220° Southwest  Level Estimated
Tue 02:32:00 PM 42.2834 -66.3828 220° Southwest  Level Estimated
Tue 02:33:00 PM 42.1967 -66.4799 220° Southwest  Level Estimated
Tue 02:34:00 PM 42.1099 -66.5766 220° Southwest  Level Estimated
Tue 02:35:00 PM 42.0230 -66.6731 220° Southwest  Level Estimated
Tue 02:36:00 PM 41.9361 -66.7693 219° Southwest  Level Estimated
Tue 02:37:00 PM 41.8491 -66.8653 219° Southwest  Level Estimated
Tue 02:38:00 PM 41.7620 -66.9610 219° Southwest  Level Estimated
Tue 02:39:00 PM 41.6749 -67.0565 219° Southwest  Level Estimated
Tue 02:40:00 PM 41.5876 -67.1517 219° Southwest  Level Estimated
Tue 02:41:00 PM 41.5003 -67.2466 219° Southwest  Level Estimated
Tue 02:42:00 PM 41.4129 -67.3413 219° Southwest  Level Estimated
Tue 02:43:00 PM 41.3254 -67.4357 219° Southwest  Level Estimated
Tue 02:44:00 PM 41.2378 -67.5299 219° Southwest  Level Estimated
Tue 02:45:00 PM 41.1502 -67.6238 219° Southwest  Level Estimated
Tue 02:46:00 PM 41.0625 -67.7175 219° Southwest  Level Estimated
Tue 02:47:00 PM 40.9747 -67.8109 219° Southwest  Level Estimated
Tue 02:48:00 PM 40.8868 -67.9041 219° Southwest  Level Estimated
Tue 02:49:00 PM 40.7989 -67.9970 219° Southwest  Level Estimated
Tue 02:50:00 PM 40.7109 -68.0897 219° Southwest  Level Estimated
Tue 02:51:00 PM 40.6228 -68.1821 219° Southwest  Level Estimated
Tue 02:52:00 PM 40.5346 -68.2743 218° Southwest  Level Estimated
Tue 02:53:00 PM 40.4464 -68.3662 218° Southwest  Level Estimated
Tue 02:54:00 PM 40.3581 -68.4579 218° Southwest  Level Estimated
Tue 02:55:00 PM 40.2697 -68.5494 218° Southwest  Level Estimated
Tue 02:56:00 PM 40.1813 -68.6406 218° Southwest  Level Estimated
Tue 02:57:00 PM 40.0928 -68.7316 218° Southwest  Level Estimated
Tue 02:58:00 PM 40.0042 -68.8224 218° Southwest  Level Estimated
Tue 02:59:00 PM 39.9155 -68.9129 218° Southwest  Level Estimated
Tue 03:00:00 PM 39.8268 -69.0032 218° Southwest  Level Estimated
Tue 03:01:00 PM 39.7380 -69.0932 218° Southwest  Level Estimated
Tue 03:02:00 PM 39.6491 -69.1831 218° Southwest  Level Estimated
Tue 03:03:00 PM 39.5602 -69.2726 218° Southwest  Level Estimated
Tue 03:04:00 PM 39.4712 -69.3620 218° Southwest  Level Estimated
Tue 03:05:00 PM 39.3821 -69.4511 218° Southwest  Level Estimated
Tue 03:06:00 PM 39.2929 -69.5400 218° Southwest  Level Estimated
Tue 03:07:00 PM 39.2037 -69.6287 218° Southwest  Level Estimated
Tue 03:08:00 PM 39.1145 -69.7172 218° Southwest  Level Estimated
Tue 03:09:00 PM 39.0251 -69.8054 218° Southwest  Level Estimated
Tue 03:10:00 PM 38.9357 -69.8934 217° Southwest  Level Estimated
Tue 03:11:00 PM 38.8462 -69.9812 217° Southwest  Level Estimated
Tue 03:12:00 PM 38.7567 -70.0687 217° Southwest  Level Estimated
Tue 03:13:00 PM 38.6671 -70.1561 217° Southwest  Level Estimated
Tue 03:14:00 PM 38.5774 -70.2432 217° Southwest  Level Estimated
Tue 03:15:00 PM 38.4877 -70.3301 217° Southwest  Level Estimated
Tue 03:16:00 PM 38.3979 -70.4168 217° Southwest  Level Estimated
Tue 03:17:00 PM 38.3080 -70.5033 217° Southwest  Level Estimated
Tue 03:18:00 PM 38.2181 -70.5895 217° Southwest  Level Estimated
Tue 03:19:00 PM 38.1281 -70.6756 217° Southwest  Level Estimated
Tue 03:20:00 PM 38.0380 -70.7614 217° Southwest  Level Estimated
Tue 03:21:00 PM 37.9479 -70.8471 217° Southwest  Level Estimated
Tue 03:22:00 PM 37.8577 -70.9325 217° Southwest  Level Estimated
Tue 03:23:00 PM 37.7675 -71.0177 217° Southwest  Level Estimated
Tue 03:24:00 PM 37.6772 -71.1027 217° Southwest  Level Estimated
Tue 03:25:00 PM 37.5868 -71.1875 217° Southwest  Level Estimated
Tue 03:26:00 PM 37.4964 -71.2721 217° Southwest  Level Estimated
Tue 03:27:00 PM 37.4059 -71.3565 217° Southwest  Level Estimated
Tue 03:28:00 PM 37.3154 -71.4406 216° Southwest  Level Estimated
Tue 03:29:00 PM 37.2248 -71.5246 216° Southwest  Level Estimated
Tue 03:30:00 PM 37.1341 -71.6084 216° Southwest  Level Estimated
Tue 03:31:00 PM 37.0434 -71.6919 216° Southwest  Level Estimated
Tue 03:32:00 PM 36.9526 -71.7753 216° Southwest  Level Estimated
Tue 03:33:00 PM 36.8618 -71.8585 216° Southwest  Level Estimated
Tue 03:34:00 PM 36.7709 -71.9415 216° Southwest  Level Estimated
Tue 03:35:00 PM 36.6800 -72.0243 216° Southwest  Level Estimated
Tue 03:36:00 PM 36.5890 -72.1068 216° Southwest  Level Estimated
Tue 03:37:00 PM 36.4979 -72.1892 216° Southwest  Level Estimated
Tue 03:38:00 PM 36.4068 -72.2714 216° Southwest  Level Estimated
Tue 03:39:00 PM 36.3156 -72.3534 216° Southwest  Level Estimated
Tue 03:40:00 PM 36.2244 -72.4353 216° Southwest  Level Estimated
Tue 03:41:00 PM 36.1331 -72.5169 216° Southwest  Level Estimated
Tue 03:42:00 PM 36.0417 -72.5983 216° Southwest  Level Estimated
Tue 03:43:00 PM 35.9503 -72.6796 216° Southwest  Level Estimated
Tue 03:44:00 PM 35.8589 -72.7606 216° Southwest  Level Estimated
Tue 03:45:00 PM 35.7674 -72.8415 216° Southwest  Level Estimated
Tue 03:46:00 PM 35.6758 -72.9222 216° Southwest  Level Estimated
Tue 03:47:00 PM 35.5842 -73.0027 216° Southwest  Level Estimated
Tue 03:48:00 PM 35.4925 -73.0830 216° Southwest  Level Estimated
Tue 03:49:00 PM 35.4008 -73.1631 215° Southwest  Level Estimated
Tue 03:50:00 PM 35.3090 -73.2430 215° Southwest  Level Estimated
Tue 03:51:00 PM 35.2172 -73.3228 215° Southwest  Level Estimated
Tue 03:52:00 PM 35.1253 -73.4024 215° Southwest  Level Estimated
Tue 03:53:00 PM 35.0334 -73.4818 215° Southwest  Level Estimated
Tue 03:54:00 PM 34.9414 -73.5611 215° Southwest  Level Estimated
Tue 03:55:00 PM 34.8494 -73.6401 215° Southwest  Level Estimated
Tue 03:56:00 PM 34.7573 -73.7190 215° Southwest  Level Estimated
Tue 03:57:00 PM 34.6651 -73.7977 215° Southwest  Level Estimated
Tue 03:58:00 PM 34.5729 -73.8762 215° Southwest  Level Estimated
Tue 03:59:00 PM 34.4807 -73.9546 215° Southwest  Level Estimated
Tue 04:00:00 PM 34.3884 -74.0327 215° Southwest  Level Estimated
Tue 04:01:00 PM 34.2961 -74.1107 215° Southwest  Level Estimated
Tue 04:02:00 PM 34.2037 -74.1886 215° Southwest  Level Estimated
Tue 04:03:00 PM 34.1113 -74.2662 215° Southwest  Level Estimated
Tue 04:04:00 PM 34.0188 -74.3437 215° Southwest  Level Estimated
Tue 04:05:00 PM 33.9262 -74.4211 215° Southwest  Level Estimated
Tue 04:06:00 PM 33.8337 -74.4982 215° Southwest  Level Estimated
Tue 04:07:00 PM 33.7410 -74.5752 215° Southwest  Level Estimated
Tue 04:08:00 PM 33.6483 -74.6520 215° Southwest  Level Estimated
Tue 04:09:00 PM 33.5556 -74.7287 215° Southwest  Level Estimated
Tue 04:10:00 PM 33.4629 -74.8052 215° Southwest  Level Estimated
Tue 04:11:00 PM 33.3700 -74.8815 214° Southwest  Level Estimated
Tue 04:12:00 PM 33.2772 -74.9577 214° Southwest  Level Estimated
Tue 04:13:00 PM 33.1843 -75.0337 214° Southwest  Level Estimated
Tue 04:14:00 PM 33.0913 -75.1096 214° Southwest  Level Estimated
Tue 04:15:00 PM 32.9983 -75.1852 214° Southwest  Level Estimated
Tue 04:16:00 PM 32.9053 -75.2608 214° Southwest  Level Estimated
Tue 04:17:00 PM 32.8122 -75.3361 214° Southwest  Level Estimated
Tue 04:18:00 PM 32.7190 -75.4113 214° Southwest  Level Estimated
Tue 04:19:00 PM 32.6259 -75.4864 214° Southwest  Level Estimated
Tue 04:20:00 PM 32.5326 -75.5613 214° Southwest  Level Estimated
Tue 04:21:00 PM 32.4394 -75.6360 214° Southwest  Level Estimated
Tue 04:22:00 PM 32.3460 -75.7106 214° Southwest  Level Estimated
Tue 04:23:00 PM 32.2527 -75.7851 214° Southwest  Level Estimated
Tue 04:24:00 PM 32.1593 -75.8593 214° Southwest  Level Estimated
Tue 04:25:00 PM 32.0658 -75.9335 214° Southwest  Level Estimated
Tue 04:26:00 PM 31.9723 -76.0074 214° Southwest  Level Estimated
Tue 04:27:00 PM 31.8788 -76.0813 214° Southwest  Level Estimated
Tue 04:28:00 PM 31.7852 -76.1550 214° Southwest  Level Estimated
Tue 04:29:00 PM 31.6916 -76.2285 214° Southwest  Level Estimated
Tue 04:30:00 PM 31.5979 -76.3019 214° Southwest  Level Estimated
Tue 04:31:00 PM 31.5042 -76.3751 214° Southwest  Level Estimated
Tue 04:32:00 PM 31.4105 -76.4482 214° Southwest  Level Estimated
Tue 04:33:00 PM 31.3167 -76.5211 214° Southwest  Level Estimated
Tue 04:34:00 PM 31.2229 -76.5939 214° Southwest  Level Estimated
Tue 04:35:00 PM 31.1290 -76.6666 214° Southwest  Level Estimated
Tue 04:36:00 PM 31.0351 -76.7391 213° Southwest  Level Estimated
Tue 04:37:00 PM 30.9412 -76.8114 213° Southwest  Level Estimated
Tue 04:38:00 PM 30.8472 -76.8837 213° Southwest  Level Estimated
Tue 04:39:00 PM 30.7531 -76.9557 213° Southwest  Level Estimated
Tue 04:40:00 PM 30.6591 -77.0277 213° Southwest  Level Estimated
Tue 04:41:00 PM 30.5650 -77.0995 213° Southwest  Level Estimated
Tue 04:42:00 PM 30.4708 -77.1711 213° Southwest  Level Estimated
Tue 04:43:00 PM 30.3766 -77.2427 213° Southwest  Level Estimated
Tue 04:44:00 PM 30.2824 -77.3140 213° Southwest  Level Estimated
Tue 04:45:00 PM 30.1881 -77.3853 213° Southwest  Level Estimated
Tue 04:46:00 PM 30.0938 -77.4564 213° Southwest  Level Estimated
Tue 04:47:00 PM 29.9995 -77.5274 213° Southwest  Level Estimated
Tue 04:48:00 PM 29.9051 -77.5982 213° Southwest  Level Estimated
Tue 04:49:00 PM 29.8107 -77.6689 213° Southwest  Level Estimated
Tue 04:50:00 PM 29.7162 -77.7395 213° Southwest  Level Estimated
Tue 04:51:00 PM 29.6218 -77.8099 213° Southwest  Level Estimated
Tue 04:52:00 PM 29.5272 -77.8802 213° Southwest  Level Estimated
Tue 04:53:00 PM 29.4327 -77.9504 213° Southwest  Level Estimated
Tue 04:54:00 PM 29.3381 -78.0204 213° Southwest  Level Estimated
Tue 04:55:00 PM 29.2434 -78.0904 213° Southwest  Level Estimated
Tue 04:56:00 PM 29.1488 -78.1602 213° Southwest  Level Estimated
Tue 04:57:00 PM 29.0541 -78.2298 213° Southwest  Level Estimated
Tue 04:58:00 PM 28.9593 -78.2993 213° Southwest  Level Estimated
Tue 04:59:00 PM 28.8645 -78.3688 213° Southwest  Level Estimated
Tue 05:00:00 PM 28.7697 -78.4380 213° Southwest  Level Estimated
Tue 05:01:00 PM 28.6749 -78.5072 213° Southwest  Level Estimated
Tue 05:02:00 PM 28.5800 -78.5762 213° Southwest  Level Estimated
Tue 05:03:00 PM 28.4850 -78.6451 213° Southwest  Level Estimated
Tue 05:04:00 PM 28.3901 -78.7139 213° Southwest  Level Estimated
Tue 05:05:00 PM 28.2951 -78.7825 212° Southwest  Level Estimated
Tue 05:06:00 PM 28.2001 -78.8511 212° Southwest  Level Estimated
Tue 05:07:00 PM 28.1050 -78.9195 212° Southwest  Level Estimated
Tue 05:08:00 PM 28.0099 -78.9878 212° Southwest  Level Estimated
Tue 05:09:00 PM 27.9148 -79.0559 212° Southwest  Level Estimated
Tue 05:10:00 PM 27.8196 -79.1240 212° Southwest  Level Estimated
Tue 05:11:00 PM 27.7244 -79.1919 212° Southwest  Level Estimated
Tue 05:12:00 PM 27.6292 -79.2597 212° Southwest  Level Estimated
Tue 05:13:00 PM 27.5339 -79.3274 212° Southwest  Level Estimated
Tue 05:14:00 PM 27.4387 -79.3950 212° Southwest  Level Estimated
Tue 05:15:00 PM 27.3433 -79.4624 212° Southwest  Level Estimated
Tue 05:16:00 PM 27.2480 -79.5298 212° Southwest  Level Estimated
Tue 05:17:00 PM 27.1526 -79.5970 212° Southwest  Level Estimated
Tue 05:18:00 PM 27.0571 -79.6641 212° Southwest  Level Estimated
Tue 05:19:00 PM 26.9617 -79.7311 212° Southwest  Level Estimated
Tue 05:20:00 PM 26.8662 -79.7980 212° Southwest  Level Estimated
Tue 05:21:00 PM 26.7707 -79.8648 212° Southwest  Level Estimated
Tue 05:22:00 PM 26.6751 -79.9314 212° Southwest  Level Estimated
Tue 05:23:00 PM 26.5796 -79.9980 212° Southwest  Level Estimated
Tue 05:24:00 PM 26.4839 -80.0644 212° Southwest  Level Estimated
Tue 05:25:00 PM 26.3883 -80.1308 212° Southwest  Level Estimated
Tue 05:26:00 PM 26.2926 -80.1970 212° Southwest  Level Estimated
Tue 05:27:00 PM 26.1969 -80.2631 212° Southwest  Level Estimated
Tue 05:28:00 PM 26.1012 -80.3291 212° Southwest  Level Estimated
Tue 05:29:00 PM 26.0054 -80.3950 212° Southwest  Level Estimated
Tue 05:30:00 PM 25.9097 -80.4607 212° Southwest  Level Estimated
Tue 05:31:00 PM 25.8138 -80.5264 212° Southwest  Level Estimated
Tue 05:32:00 PM 25.7180 -80.5920 212° Southwest  Level Estimated
Tue 05:33:00 PM 25.6221 -80.6575 212° Southwest  Level Estimated
Tue 05:34:00 PM 25.5262 -80.7228 212° Southwest  Level Estimated
Tue 05:35:00 PM 25.4303 -80.7881 212° Southwest  Level Estimated
Tue 05:36:00 PM 25.3343 -80.8532 212° Southwest  Level Estimated
Tue 05:37:00 PM 25.2383 -80.9183 212° Southwest  Level Estimated
Tue 05:38:00 PM 25.1423 -80.9832 211° Southwest  Level Estimated
Tue 05:39:00 PM 25.0462 -81.0481 211° Southwest  Level Estimated
Tue 05:40:00 PM 24.9501 -81.1128 211° Southwest  Level Estimated
Tue 05:41:00 PM 24.8540 -81.1775 211° Southwest  Level Estimated
Tue 05:42:00 PM 24.7579 -81.2420 211° Southwest  Level Estimated
Tue 05:43:00 PM 24.6617 -81.3064 211° Southwest  Level Estimated
Tue 05:44:00 PM 24.5655 -81.3708 211° Southwest  Level Estimated
Tue 05:45:00 PM 24.4693 -81.4350 211° Southwest  Level Estimated
Tue 05:46:00 PM 24.3731 -81.4992 211° Southwest  Level Estimated
Tue 05:47:00 PM 24.2768 -81.5632 211° Southwest  Level Estimated
Tue 05:48:00 PM 24.1805 -81.6272 211° Southwest  Level Estimated
Tue 05:49:00 PM 24.0842 -81.6910 211° Southwest  Level Estimated
Tue 05:50:00 PM 23.9878 -81.7548 211° Southwest  Level Estimated
Tue 05:51:00 PM 23.8914 -81.8184 211° Southwest  Level Estimated
Tue 05:52:00 PM 23.7950 -81.8820 211° Southwest  Level Estimated
Tue 05:53:00 PM 23.6986 -81.9455 211° Southwest  Level Estimated
Tue 05:54:00 PM 23.6021 -82.0088 211° Southwest  Level Estimated
Tue 05:55:00 PM 23.5057 -82.0721 211° Southwest  Level Estimated
Tue 05:56:00 PM 23.4092 -82.1353 211° Southwest  Level Estimated
Tue 05:57:00 PM 23.3126 -82.1984 211° Southwest  Level Estimated
Tue 05:58:00 PM 23.2161 -82.2614 211° Southwest  Level Estimated

Login

Don't have an account? Register now (free) for customized features, flight alerts, and more!